| time (UTC) | temp C | wind direction | speed KPH | gust KPH | rain 1hr cm | rain 24hr cm | rain mn cm | humidity % | barometer mb |
| 20260507174359 | 16 | 269 | 11.3 | 29.0 | 0.00 | 0.69 | 0.51 | 51 | 1001.4 |
| 20260507173822 | 16 | 260 | 12.9 | 19.3 | 0.00 | 0.69 | 0.51 | 51 | 1001.4 |
| 20260507173328 | 16 | 300 | 11.3 | 22.5 | 0.00 | 0.69 | 0.51 | 51 | 1001.3 |
| 20260507172832 | 16 | 302 | 4.8 | 14.5 | 0.00 | 0.69 | 0.51 | 53 | 1001.5 |
| 20260507172358 | 16 | 327 | 3.2 | 17.7 | 0.00 | 0.69 | 0.51 | 53 | 1001.6 |
| 20260507171842 | 16 | 289 | 11.3 | 22.5 | 0.00 | 0.69 | 0.51 | 53 | 1001.6 |
| 20260507171324 | 16 | 219 | 9.7 | 22.5 | 0.00 | 0.69 | 0.51 | 53 | 1001.6 |
| 20260507170830 | 16 | 252 | 12.9 | 29.0 | 0.00 | 0.69 | 0.51 | 54 | 1001.7 |
| 20260507170334 | 16 | 276 | 16.1 | 22.5 | 0.00 | 0.69 | 0.51 | 52 | 1001.6 |
| 20260507165839 | 16 | 25 | 6.4 | 16.1 | 0.00 | 0.69 | 0.51 | 53 | 1001.7 |
| 20260507165326 | 16 | 327 | 8.0 | 16.1 | 0.00 | 0.69 | 0.51 | 53 | 1001.8 |
| 20260507164831 | 16 | 175 | 6.4 | 12.9 | 0.00 | 0.69 | 0.51 | 55 | 1001.9 |
| 20260507164356 | 16 | 38 | 3.2 | 17.7 | 0.00 | 0.69 | 0.51 | 61 | 1001.9 |
| 20260507163838 | 15 | 315 | 8.0 | 17.7 | 0.00 | 0.69 | 0.51 | 58 | 1002.0 |
| 20260507163323 | 15 | 114 | 3.2 | 17.7 | 0.00 | 0.69 | 0.51 | 60 | 1002.0 |
| 20260507162847 | 15 | 270 | 3.2 | 16.1 | 0.00 | 0.69 | 0.51 | 62 | 1002.1 |
| 20260507162331 | 15 | 304 | 8.0 | 19.3 | 0.00 | 0.69 | 0.51 | 60 | 1002.2 |
| 20260507161835 | 15 | 294 | 9.7 | 20.9 | 0.00 | 0.69 | 0.51 | 60 | 1002.3 |
| 20260507161401 | 15 | 213 | 4.8 | 20.9 | 0.00 | 0.69 | 0.51 | 61 | 1002.4 |
| 20260507160824 | 15 | 296 | 9.7 | 16.1 | 0.00 | 0.69 | 0.51 | 63 | 1002.5 |
| 20260507160328 | 15 | 313 | 8.0 | 24.1 | 0.00 | 0.69 | 0.51 | 66 | 1002.6 |
| 20260507155852 | 15 | 340 | 12.9 | 24.1 | 0.00 | 0.69 | 0.51 | 65 | 1002.6 |
| 20260507155337 | 14 | 258 | 6.4 | 17.7 | 0.00 | 0.69 | 0.51 | 67 | 1002.6 |
| 20260507154821 | 14 | 298 | 9.7 | 17.7 | 0.00 | 0.69 | 0.51 | 68 | 1002.7 |
| 20260507154346 | 15 | 294 | 4.8 | 12.9 | 0.00 | 0.69 | 0.51 | 69 | 1002.6 |
| 20260507153834 | 14 | 182 | 3.2 | 19.3 | 0.00 | 0.69 | 0.51 | 71 | 1002.5 |
| 20260507153339 | 14 | 305 | 9.7 | 19.3 | 0.00 | 0.69 | 0.51 | 69 | 1002.7 |
| 20260507152823 | 14 | 277 | 4.8 | 14.5 | 0.00 | 0.69 | 0.51 | 71 | 1002.8 |
| 20260507152326 | 14 | 286 | 4.8 | 19.3 | 0.00 | 0.69 | 0.51 | 73 | 1002.7 |
| 20260507151852 | 13 | 319 | 11.3 | 19.3 | 0.00 | 0.69 | 0.51 | 71 | 1002.8 |
| 20260507151334 | 13 | 36 | 8.0 | 17.7 | 0.00 | 0.69 | 0.51 | 72 | 1002.9 |
| 20260507150859 | 13 | 355 | 9.7 | 17.7 | 0.00 | 0.69 | 0.51 | 73 | 1002.9 |
| 20260507150323 | 13 | 300 | 9.7 | 19.3 | 0.00 | 0.69 | 0.51 | 73 | 1003.0 |
| 20260507145828 | 13 | 291 | 4.8 | 22.5 | 0.00 | 0.69 | 0.51 | 73 | 1003.1 |
| 20260507145332 | 13 | 259 | 11.3 | 16.1 | 0.00 | 0.69 | 0.51 | 74 | 1003.2 |
| 20260507144836 | 13 | 168 | 4.8 | 16.1 | 0.00 | 0.69 | 0.51 | 77 | 1003.4 |
| 20260507144321 | 12 | 325 | 9.7 | 19.3 | 0.00 | 0.69 | 0.51 | 75 | 1003.4 |
| 20260507143830 | 12 | 298 | 11.3 | 17.7 | 0.00 | 0.69 | 0.51 | 74 | 1003.1 |
| 20260507143334 | 12 | 284 | 8.0 | 19.3 | 0.00 | 0.69 | 0.51 | 76 | 1003.2 |
| 20260507142839 | 12 | 309 | 9.7 | 19.3 | 0.00 | 0.69 | 0.51 | 79 | 1003.4 |
| 20260507142322 | 12 | 311 | 11.3 | 17.7 | 0.00 | 0.69 | 0.51 | 79 | 1003.5 |
| 20260507141826 | 12 | 149 | 4.8 | 25.7 | 0.00 | 0.69 | 0.51 | 81 | 1003.6 |
| 20260507141331 | 12 | 292 | 11.3 | 25.7 | 0.00 | 0.69 | 0.51 | 81 | 1003.8 |
| 20260507140836 | 12 | 267 | 8.0 | 16.1 | 0.00 | 0.69 | 0.51 | 83 | 1003.8 |
| 20260507140320 | 11 | 277 | 8.0 | 16.1 | 0.00 | 0.69 | 0.51 | 83 | 1003.8 |
| 20260507135824 | 12 | 278 | 6.4 | 20.9 | 0.00 | 0.69 | 0.51 | 85 | 1003.7 |
| 20260507135329 | 11 | 280 | 11.3 | 20.9 | 0.00 | 0.69 | 0.51 | 85 | 1003.6 |
| 20260507134833 | 11 | 291 | 9.7 | 14.5 | 0.00 | 0.69 | 0.51 | 87 | 1003.6 |
| 20260507134322 | 10 | 309 | 6.4 | 12.9 | 0.00 | 0.69 | 0.51 | 87 | 1003.6 |
| 20260507133846 | 10 | 278 | 8.0 | 12.9 | 0.00 | 0.69 | 0.51 | 87 | 1003.7 |
| 20260507133329 | 10 | 335 | 3.2 | 12.9 | 0.00 | 0.69 | 0.51 | 88 | 1003.7 |
| 20260507132835 | 10 | 282 | 8.0 | 14.5 | 0.00 | 0.69 | 0.51 | 88 | 1003.9 |
| 20260507132359 | 10 | 292 | 6.4 | 14.5 | 0.00 | 0.69 | 0.51 | 89 | 1003.8 |
| 20260507131823 | 10 | 298 | 4.8 | 12.9 | 0.00 | 0.69 | 0.51 | 90 | 1003.7 |
| 20260507131348 | 10 | 319 | 8.0 | 12.9 | 0.00 | 0.69 | 0.51 | 89 | 1003.9 |
| 20260507130832 | 10 | 279 | 8.0 | 14.5 | 0.00 | 0.69 | 0.51 | 90 | 1003.8 |
| 20260507130336 | 10 | 259 | 9.7 | 14.5 | 0.00 | 0.69 | 0.51 | 90 | 1003.6 |
| 20260507125821 | 10 | 297 | 6.4 | 12.9 | 0.00 | 0.69 | 0.51 | 90 | 1003.3 |
| 20260507125325 | 9 | 266 | 4.8 | 14.5 | 0.00 | 0.69 | 0.51 | 91 | 1003.2 |
| 20260507124831 | 9 | 295 | 8.0 | 14.5 | 0.00 | 0.69 | 0.51 | 91 | 1003.4 |
| 20260507124319 | 9 | 256 | 526.3 | 526.3 | 0.00 | 0.00 | 0.51 | 91 | 1003.9 |
| 20260507123825 | 9 | 277 | 9.7 | 16.1 | 0.00 | 0.69 | 0.51 | 91 | 1003.9 |
| 20260507123330 | 9 | 292 | 9.7 | 16.1 | 0.00 | 0.69 | 0.51 | 91 | 1004.1 |
| 20260507122835 | 10 | 253 | 6.4 | 12.9 | 0.00 | 0.69 | 0.51 | 92 | 1003.8 |
| 20260507122338 | 10 | 298 | 6.4 | 11.3 | 0.00 | 0.69 | 0.51 | 92 | 1004.1 |
| 20260507121823 | 10 | 283 | 6.4 | 11.3 | 0.00 | 0.69 | 0.51 | 92 | 1004.5 |
| 20260507121327 | 10 | 292 | 4.8 | 11.3 | 0.00 | 0.69 | 0.51 | 92 | 1004.5 |
| 20260507120832 | 10 | 273 | 4.8 | 14.5 | 0.00 | 0.69 | 0.51 | 92 | 1004.0 |
| 20260507120337 | 9 | 288 | 6.4 | 16.1 | 0.00 | 0.69 | 0.51 | 92 | 1004.2 |
| 20260507115821 | 10 | 273 | 9.7 | 16.1 | 0.00 | 0.69 | 0.51 | 92 | 1004.4 |
| 20260507115325 | 10 | 266 | 4.8 | 14.5 | 0.00 | 0.69 | 0.51 | 93 | 1004.4 |
| 20260507114834 | 10 | 272 | 4.8 | 16.1 | 0.00 | 0.69 | 0.51 | 92 | 1004.0 |
| 20260507114338 | 10 | 277 | 8.0 | 16.1 | 0.00 | 0.69 | 0.51 | 93 | 1004.1 |
| 20260507113822 | 10 | 306 | 8.0 | 12.9 | 0.00 | 0.69 | 0.51 | 93 | 1004.0 |
| 20260507112822 | 10 | 326 | 6.4 | 16.1 | 0.00 | 0.69 | 0.51 | 93 | 1003.6 |
| 20260507112347 | 10 | 298 | 8.0 | 16.1 | 0.00 | 0.69 | 0.51 | 93 | 1003.5 |
| 20260507111851 | 10 | 243 | 9.7 | 16.1 | 0.00 | 0.69 | 0.51 | 93 | 1003.4 |
| 20260507111338 | 10 | 230 | 3.2 | 12.9 | 0.00 | 0.69 | 0.51 | 94 | 1003.4 |
| 20260507110820 | 10 | 275 | 6.4 | 12.9 | 0.00 | 0.69 | 0.51 | 94 | 1003.6 |
| 20260507110324 | 10 | 298 | 4.8 | 14.5 | 0.00 | 0.69 | 0.51 | 93 | 1003.3 |
| 20260507105828 | 10 | 245 | 8.0 | 14.5 | 0.00 | 0.69 | 0.51 | 93 | 1003.3 |
| 20260507105332 | 10 | 306 | 3.2 | 9.7 | 0.00 | 0.69 | 0.51 | 93 | 1003.2 |
| 20260507104822 | 10 | 252 | 3.2 | 11.3 | 0.00 | 0.69 | 0.51 | 94 | 1003.4 |
| 20260507104327 | 10 | 280 | 4.8 | 6.4 | 0.00 | 0.69 | 0.51 | 94 | 1003.3 |
| 20260507103832 | 10 | 308 | 3.2 | 8.0 | 0.00 | 0.69 | 0.51 | 93 | 1003.3 |
| 20260507103336 | 10 | 274 | 6.4 | 12.9 | 0.00 | 0.69 | 0.51 | 93 | 1003.5 |
| 20260507102839 | 10 | 260 | 4.8 | 9.7 | 0.00 | 0.69 | 0.51 | 93 | 1003.5 |
| 20260507102324 | 10 | 288 | 4.8 | 12.9 | 0.00 | 0.69 | 0.51 | 94 | 1003.3 |
| 20260507101828 | 10 | 274 | 6.4 | 12.9 | 0.00 | 0.69 | 0.51 | 94 | 1003.3 |
| 20260507101330 | 10 | 263 | 6.4 | 12.9 | 0.00 | 0.69 | 0.51 | 94 | 1003.6 |
| 20260507100833 | 10 | 267 | 9.7 | 14.5 | 0.00 | 0.69 | 0.51 | 94 | 1003.6 |
| 20260507100338 | 10 | 275 | 6.4 | 14.5 | 0.00 | 0.69 | 0.51 | 93 | 1003.4 |
| 20260507095826 | 10 | 281 | 8.0 | 14.5 | 0.00 | 0.69 | 0.51 | 93 | 1003.3 |
| 20260507095330 | 10 | 300 | 9.7 | 14.5 | 0.00 | 0.69 | 0.51 | 93 | 1003.3 |
| 20260507094835 | 10 | 264 | 11.3 | 14.5 | 0.00 | 0.69 | 0.51 | 93 | 1002.9 |
| 20260507094339 | 10 | 252 | 8.0 | 12.9 | 0.00 | 0.69 | 0.51 | 93 | 1002.4 |
| 20260507093824 | 10 | 288 | 4.8 | 8.0 | 0.00 | 0.69 | 0.51 | 94 | 1002.2 |
| 20260507093328 | 10 | 222 | 4.8 | 12.9 | 0.00 | 0.69 | 0.51 | 94 | 1002.3 |
| 20260507092853 | 10 | 279 | 6.4 | 12.9 | 0.00 | 0.69 | 0.51 | 94 | 1002.6 |
| 20260507092338 | 10 | 277 | 4.8 | 14.5 | 0.03 | 0.69 | 0.51 | 94 | 1002.5 |
| 20260507091823 | 10 | 293 | 8.0 | 16.1 | 0.03 | 0.69 | 0.51 | 94 | 1002.6 |
| 20260507091348 | 10 | 282 | 9.7 | 16.1 | 0.05 | 0.69 | 0.51 | 94 | 1002.7 |
| 20260507090851 | 10 | 284 | 8.0 | 12.9 | 0.05 | 0.69 | 0.51 | 94 | 1002.9 |
| 20260507090354 | 10 | 315 | 9.7 | 12.9 | 0.05 | 0.69 | 0.51 | 94 | 1002.8 |
| 20260507085858 | 10 | 282 | 8.0 | 14.5 | 0.05 | 0.69 | 0.51 | 94 | 1002.6 |
| 20260507085321 | 10 | 265 | 8.0 | 14.5 | 0.05 | 0.69 | 0.51 | 94 | 1002.5 |
| 20260507084827 | 10 | 282 | 6.4 | 14.5 | 0.05 | 0.69 | 0.51 | 94 | 1002.4 |
| 20260507084335 | 10 | 275 | 8.0 | 14.5 | 0.05 | 0.69 | 0.51 | 94 | 1002.4 |
| 20260507083900 | 10 | 269 | 8.0 | 19.3 | 0.05 | 0.69 | 0.51 | 94 | 1002.2 |
| 20260507083323 | 10 | 296 | 11.3 | 19.3 | 0.05 | 0.69 | 0.51 | 94 | 1002.4 |
| 20260507082828 | 10 | 295 | 12.9 | 19.3 | 0.08 | 0.69 | 0.51 | 94 | 1002.4 |
| 20260507082333 | 10 | 267 | 6.4 | 11.3 | 0.10 | 0.66 | 0.48 | 94 | 1002.2 |
| 20260507081856 | 10 | 278 | 6.4 | 12.9 | 0.13 | 0.64 | 0.48 | 94 | 1002.2 |
| 20260507081319 | 10 | 274 | 6.4 | 14.5 | 0.18 | 0.64 | 0.46 | 94 | 1002.2 |
| 20260507080823 | 10 | 267 | 526.3 | 526.3 | 0.00 | 0.00 | 0.46 | 94 | 1001.9 |
| 20260507080329 | 10 | 274 | 3.2 | 8.0 | 0.25 | 0.64 | 0.46 | 93 | 1001.8 |
| 20260507075835 | 10 | 269 | 3.2 | 6.4 | 0.28 | 0.64 | 0.46 | 93 | 1001.7 |
| 20260507075340 | 10 | 279 | 3.2 | 6.4 | 0.28 | 0.64 | 0.46 | 93 | 1001.6 |
| 20260507074824 | 10 | 260 | 0.0 | 4.8 | 0.28 | 0.64 | 0.46 | 93 | 1001.6 |
| 20260507074334 | 10 | 287 | 1.6 | 4.8 | 0.28 | 0.64 | 0.46 | 93 | 1001.4 |
| 20260507073837 | 10 | 248 | 0.0 | 4.8 | 0.28 | 0.64 | 0.46 | 93 | 1001.6 |
| 20260507073321 | 10 | 248 | 1.6 | 8.0 | 0.28 | 0.64 | 0.46 | 93 | 1001.6 |
| 20260507072825 | 11 | 32 | 1.6 | 19.3 | 0.28 | 0.61 | 0.43 | 93 | 1001.4 |
| 20260507072328 | 11 | 271 | 9.7 | 19.3 | 0.23 | 0.56 | 0.38 | 93 | 1002.5 |
| 20260507071833 | 11 | 252 | 8.0 | 22.5 | 0.18 | 0.51 | 0.33 | 93 | 1002.1 |
| 20260507071338 | 11 | 263 | 11.3 | 22.5 | 0.13 | 0.46 | 0.28 | 93 | 1002.2 |
| 20260507070823 | 11 | 277 | 9.7 | 16.1 | 0.10 | 0.41 | 0.23 | 93 | 1002.3 |
| 20260507070328 | 11 | 263 | 6.4 | 16.1 | 0.08 | 0.38 | 0.20 | 93 | 1002.2 |
| 20260507065832 | 11 | 259 | 4.8 | 16.1 | 0.05 | 0.41 | 0.18 | 93 | 1002.1 |
| 20260507065322 | 11 | 217 | 4.8 | 14.5 | 0.05 | 0.41 | 0.18 | 93 | 1002.1 |
| 20260507064826 | 11 | 240 | 6.4 | 16.1 | 0.05 | 0.41 | 0.18 | 93 | 1001.9 |
| 20260507064331 | 11 | 282 | 6.4 | 16.1 | 0.05 | 0.41 | 0.18 | 93 | 1001.9 |
| 20260507063835 | 11 | 282 | 8.0 | 16.1 | 0.05 | 0.41 | 0.18 | 93 | 1001.8 |
| 20260507063339 | 11 | 286 | 6.4 | 17.7 | 0.08 | 0.41 | 0.18 | 93 | 1001.8 |
| 20260507062824 | 11 | 290 | 8.0 | 17.7 | 0.05 | 0.38 | 0.15 | 93 | 1001.8 |
| 20260507062329 | 11 | 213 | 6.4 | 16.1 | 0.05 | 0.38 | 0.15 | 93 | 1001.9 |
| 20260507061832 | 11 | 260 | 9.7 | 16.1 | 0.05 | 0.38 | 0.15 | 93 | 1002.0 |
| 20260507061337 | 11 | 330 | 8.0 | 19.3 | 0.05 | 0.38 | 0.15 | 93 | 1002.0 |
| 20260507060821 | 11 | 265 | 6.4 | 19.3 | 0.03 | 0.36 | 0.13 | 93 | 1002.0 |
| 20260507060326 | 11 | 217 | 9.7 | 19.3 | 0.03 | 0.36 | 0.13 | 93 | 1002.1 |
| 20260507055834 | 11 | 254 | 9.7 | 19.3 | 0.03 | 0.36 | 0.13 | 92 | 1002.1 |
| 20260507055337 | 11 | 246 | 11.3 | 17.7 | 0.03 | 0.36 | 0.13 | 93 | 1002.1 |
| 20260507054822 | 11 | 225 | 8.0 | 17.7 | 0.03 | 0.36 | 0.13 | 92 | 1002.2 |
| 20260507054327 | 11 | 205 | 9.7 | 19.3 | 0.03 | 0.36 | 0.13 | 92 | 1002.1 |
| 20260507053851 | 11 | 224 | 6.4 | 19.3 | 0.03 | 0.36 | 0.13 | 92 | 1002.1 |
| 20260507053332 | 11 | 257 | 6.4 | 14.5 | 0.00 | 0.33 | 0.10 | 92 | 1002.2 |
| 20260507052835 | 11 | 311 | 6.4 | 16.1 | 0.00 | 0.33 | 0.10 | 92 | 1002.4 |
| 20260507052339 | 11 | 219 | 6.4 | 17.7 | 0.03 | 0.33 | 0.10 | 92 | 1002.3 |
| 20260507051824 | 11 | 188 | 4.8 | 24.1 | 0.05 | 0.33 | 0.10 | 92 | 1002.5 |
| 20260507051329 | 11 | 248 | 4.8 | 12.9 | 0.08 | 0.33 | 0.10 | 92 | 1002.6 |
| 20260507050834 | 11 | 296 | 4.8 | 14.5 | 0.08 | 0.33 | 0.10 | 92 | 1002.7 |
| 20260507050323 | 11 | 234 | 6.4 | 17.7 | 0.10 | 0.33 | 0.10 | 92 | 1002.8 |
| 20260507045827 | 12 | 252 | 6.4 | 24.1 | 0.10 | 0.33 | 0.10 | 92 | 1002.9 |
| 20260507045333 | 12 | 271 | 6.4 | 20.9 | 0.13 | 0.33 | 0.10 | 92 | 1003.1 |
| 20260507044836 | 12 | 270 | 9.7 | 20.9 | 0.13 | 0.33 | 0.10 | 92 | 1003.0 |
| 20260507044342 | 12 | 210 | 9.7 | 17.7 | 0.13 | 0.33 | 0.10 | 92 | 1003.1 |
| 20260507043824 | 12 | 324 | 8.0 | 16.1 | 0.13 | 0.33 | 0.10 | 92 | 1003.2 |
| 20260507043329 | 12 | 49 | 4.8 | 14.5 | 0.15 | 0.33 | 0.10 | 92 | 1003.2 |
| 20260507042853 | 12 | 169 | 8.0 | 14.5 | 0.15 | 0.33 | 0.10 | 92 | 1003.4 |
| 20260507042335 | 12 | 209 | 6.4 | 14.5 | 0.15 | 0.30 | 0.08 | 92 | 1003.6 |
| 20260507041820 | 12 | 301 | 3.2 | 12.9 | 0.13 | 0.28 | 0.05 | 92 | 1003.6 |
| 20260507041324 | 12 | 312 | 4.8 | 14.5 | 0.10 | 0.25 | 0.03 | 92 | 1003.5 |
| 20260507040829 | 12 | 157 | 6.4 | 14.5 | 0.10 | 0.25 | 0.03 | 92 | 1003.7 |
| 20260507040333 | 12 | 334 | 6.4 | 12.9 | 0.10 | 0.23 | 0.00 | 92 | 1003.7 |
| 20260507035823 | 12 | 36 | 3.2 | 12.9 | 0.10 | 0.23 | 0.23 | 92 | 1003.8 |
| 20260507035348 | 12 | 27 | 3.2 | 12.9 | 0.10 | 0.20 | 0.20 | 92 | 1003.9 |
| 20260507034832 | 12 | 192 | 4.8 | 17.7 | 0.10 | 0.20 | 0.20 | 92 | 1003.9 |
| 20260507034337 | 12 | 312 | 8.0 | 17.7 | 0.10 | 0.20 | 0.20 | 91 | 1004.0 |
| 20260507033822 | 12 | 240 | 6.4 | 19.3 | 0.13 | 0.20 | 0.20 | 92 | 1004.0 |
| 20260507033326 | 12 | 215 | 6.4 | 19.3 | 0.10 | 0.18 | 0.18 | 91 | 1004.2 |
| 20260507032830 | 12 | 118 | 3.2 | 12.9 | 0.10 | 0.18 | 0.18 | 91 | 1004.4 |
| 20260507032335 | 12 | 138 | 4.8 | 12.9 | 0.08 | 0.15 | 0.15 | 91 | 1004.5 |
| 20260507031820 | 12 | 229 | 4.8 | 12.9 | 0.08 | 0.15 | 0.15 | 91 | 1004.4 |
| 20260507031344 | 12 | 5 | 4.8 | 14.5 | 0.10 | 0.15 | 0.15 | 91 | 1004.5 |
| 20260507030829 | 12 | 148 | 4.8 | 14.5 | 0.10 | 0.15 | 0.15 | 91 | 1004.7 |
| 20260507030333 | 12 | 170 | 3.2 | 11.3 | 0.08 | 0.13 | 0.13 | 91 | 1004.9 |
| 20260507025841 | 12 | 178 | 3.2 | 16.1 | 0.08 | 0.13 | 0.13 | 91 | 1004.8 |
| 20260507025325 | 12 | 156 | 3.2 | 16.1 | 0.05 | 0.10 | 0.10 | 91 | 1005.1 |
| 20260507024828 | 12 | 220 | 4.8 | 11.3 | 0.05 | 0.10 | 0.10 | 90 | 1005.3 |
| 20260507024334 | 12 | 62 | 1.6 | 12.9 | 0.05 | 0.10 | 0.10 | 90 | 1005.4 |
| 20260507023857 | 13 | 77 | 1.6 | 9.7 | 0.03 | 0.08 | 0.08 | 90 | 1005.5 |
| 20260507023320 | 12 | 81 | 3.2 | 9.7 | 0.03 | 0.08 | 0.08 | 90 | 1005.5 |
| 20260507022824 | 12 | 219 | 4.8 | 9.7 | 0.03 | 0.08 | 0.08 | 90 | 1005.8 |
| 20260507022330 | 12 | 271 | 4.8 | 11.3 | 0.03 | 0.08 | 0.08 | 89 | 1006.1 |
| 20260507021834 | 12 | 147 | 3.2 | 12.9 | 0.03 | 0.08 | 0.08 | 89 | 1006.0 |
| 20260507021338 | 12 | 236 | 6.4 | 14.5 | 0.00 | 0.05 | 0.05 | 89 | 1006.1 |
| 20260507020823 | 12 | 240 | 3.2 | 17.7 | 0.00 | 0.05 | 0.05 | 89 | 1006.2 |
| 20260507020329 | 12 | 160 | 6.4 | 19.3 | 0.00 | 0.05 | 0.05 | 88 | 1006.4 |
| 20260507015836 | 12 | 215 | 6.4 | 19.3 | 0.00 | 0.05 | 0.05 | 88 | 1006.5 |
| 20260507015321 | 12 | 216 | 6.4 | 17.7 | 0.00 | 0.05 | 0.05 | 88 | 1006.6 |
| 20260507014826 | 12 | 215 | 4.8 | 17.7 | 0.00 | 0.05 | 0.05 | 87 | 1006.7 |
| 20260507014330 | 12 | 290 | 4.8 | 16.1 | 0.00 | 0.05 | 0.05 | 87 | 1006.6 |
| 20260507013833 | 12 | 336 | 3.2 | 17.7 | 0.00 | 0.05 | 0.05 | 87 | 1006.8 |
| 20260507013338 | 12 | 156 | 6.4 | 17.7 | 0.00 | 0.05 | 0.05 | 87 | 1006.9 |
| 20260507012823 | 12 | 213 | 1.6 | 24.1 | 0.00 | 0.05 | 0.05 | 87 | 1006.9 |
| 20260507012329 | 12 | 265 | 6.4 | 24.1 | 0.00 | 0.05 | 0.05 | 87 | 1007.2 |
| 20260507011834 | 12 | 120 | 6.4 | 14.5 | 0.00 | 0.05 | 0.05 | 87 | 1007.3 |
| 20260507011338 | 12 | 118 | 6.4 | 12.9 | 0.00 | 0.05 | 0.05 | 87 | 1007.3 |
| 20260507010827 | 12 | 296 | 3.2 | 14.5 | 0.00 | 0.05 | 0.05 | 87 | 1007.4 |
| 20260507010350 | 12 | 311 | 6.4 | 14.5 | 0.00 | 0.05 | 0.05 | 87 | 1007.5 |
| 20260507005854 | 12 | 110 | 8.0 | 16.1 | 0.00 | 0.05 | 0.05 | 87 | 1007.7 |
| 20260507005338 | 12 | 210 | 4.8 | 16.1 | 0.00 | 0.05 | 0.05 | 87 | 1007.5 |
| 20260507004822 | 12 | 69 | 4.8 | 17.7 | 0.00 | 0.05 | 0.05 | 87 | 1007.6 |
| 20260507004327 | 12 | 130 | 6.4 | 17.7 | 0.00 | 0.05 | 0.05 | 87 | 1007.9 |
| 20260507003831 | 12 | 138 | 4.8 | 16.1 | 0.00 | 0.05 | 0.05 | 87 | 1008.1 |
| 20260507003335 | 12 | 325 | 8.0 | 16.1 | 0.00 | 0.05 | 0.05 | 87 | 1008.0 |
| 20260507002820 | 12 | 217 | 3.2 | 25.7 | 0.00 | 0.05 | 0.05 | 87 | 1008.0 |
| 20260507002324 | 12 | 121 | 8.0 | 25.7 | 0.00 | 0.05 | 0.05 | 87 | 1007.6 |
| 20260507001828 | 12 | 79 | 526.3 | 526.3 | 0.00 | 0.00 | 0.05 | 87 | 1008.1 |
| 20260507001354 | 12 | 223 | 3.2 | 11.3 | 0.00 | 0.05 | 0.05 | 86 | 1007.7 |
| 20260507000836 | 12 | 98 | 3.2 | 11.3 | 0.00 | 0.05 | 0.05 | 87 | 1007.5 |
| 20260507000325 | 12 | 151 | 3.2 | 11.3 | 0.00 | 0.05 | 0.05 | 86 | 1007.7 |
| 20260506235828 | 12 | 215 | 4.8 | 11.3 | 0.00 | 0.05 | 0.05 | 86 | 1008.0 |
| 20260506235333 | 13 | 288 | 4.8 | 20.9 | 0.00 | 0.05 | 0.05 | 86 | 1008.5 |
| 20260506234857 | 13 | 186 | 4.8 | 9.7 | 0.00 | 0.05 | 0.05 | 86 | 1008.7 |
| 20260506234320 | 13 | 206 | 3.2 | 11.3 | 0.00 | 0.05 | 0.05 | 86 | 1008.8 |
| 20260506233825 | 13 | 111 | 3.2 | 16.1 | 0.00 | 0.05 | 0.05 | 86 | 1008.7 |
| 20260506233330 | 13 | 125 | 3.2 | 16.1 | 0.00 | 0.05 | 0.05 | 86 | 1008.3 |
| 20260506232835 | 13 | 137 | 3.2 | 8.0 | 0.00 | 0.05 | 0.05 | 86 | 1008.6 |
| 20260506232400 | 13 | 241 | 3.2 | 12.9 | 0.00 | 0.05 | 0.05 | 86 | 1008.8 |
| 20260506231844 | 13 | 160 | 526.3 | 526.3 | 0.00 | 0.00 | 0.05 | 86 | 1008.6 |
| 20260506231328 | 13 | 74 | 1.6 | 12.9 | 0.00 | 0.05 | 0.05 | 85 | 1008.6 |
| 20260506230832 | 13 | 229 | 3.2 | 14.5 | 0.00 | 0.05 | 0.05 | 85 | 1008.8 |
| 20260506230336 | 13 | 205 | 6.4 | 14.5 | 0.00 | 0.05 | 0.05 | 85 | 1008.8 |
| 20260506225841 | 13 | 186 | 4.8 | 11.3 | 0.00 | 0.05 | 0.05 | 85 | 1008.7 |
| 20260506225329 | 13 | 238 | 3.2 | 16.1 | 0.00 | 0.05 | 0.05 | 85 | 1008.7 |
| 20260506224834 | 13 | 193 | 6.4 | 16.1 | 0.00 | 0.05 | 0.05 | 85 | 1008.9 |
| 20260506224338 | 13 | 48 | 3.2 | 20.9 | 0.00 | 0.05 | 0.05 | 85 | 1008.7 |
| 20260506223822 | 13 | 238 | 8.0 | 22.5 | 0.00 | 0.05 | 0.05 | 85 | 1008.8 |
| 20260506223326 | 13 | 285 | 4.8 | 22.5 | 0.00 | 0.05 | 0.05 | 85 | 1008.8 |
| 20260506222831 | 13 | 267 | 3.2 | 14.5 | 0.00 | 0.05 | 0.05 | 85 | 1009.0 |
| 20260506222335 | 13 | 163 | 3.2 | 16.1 | 0.00 | 0.05 | 0.05 | 85 | 1008.7 |
| 20260506221859 | 13 | 284 | 6.4 | 22.5 | 0.00 | 0.05 | 0.05 | 85 | 1008.8 |
| 20260506221322 | 13 | 159 | 6.4 | 22.5 | 0.00 | 0.05 | 0.05 | 85 | 1008.9 |
| 20260506220847 | 13 | 187 | 4.8 | 22.5 | 0.00 | 0.05 | 0.05 | 85 | 1008.9 |
| 20260506220331 | 13 | 259 | 4.8 | 22.5 | 0.00 | 0.05 | 0.05 | 85 | 1009.0 |
| 20260506215835 | 13 | 119 | 3.2 | 11.3 | 0.00 | 0.05 | 0.05 | 85 | 1008.8 |
| 20260506215323 | 13 | 198 | 6.4 | 11.3 | 0.00 | 0.05 | 0.05 | 85 | 1009.1 |
| 20260506214827 | 13 | 237 | 3.2 | 17.7 | 0.00 | 0.05 | 0.05 | 85 | 1009.1 |
| 20260506214332 | 13 | 219 | 4.8 | 17.7 | 0.00 | 0.05 | 0.05 | 85 | 1009.3 |
| 20260506213836 | 13 | 239 | 3.2 | 12.9 | 0.00 | 0.05 | 0.05 | 85 | 1009.2 |
| 20260506213339 | 13 | 288 | 4.8 | 16.1 | 0.00 | 0.05 | 0.05 | 84 | 1009.4 |
| 20260506212823 | 13 | 178 | 1.6 | 14.5 | 0.00 | 0.05 | 0.05 | 84 | 1008.9 |
| 20260506212328 | 13 | 231 | 4.8 | 16.1 | 0.00 | 0.05 | 0.05 | 84 | 1008.8 |
| 20260506211833 | 13 | 69 | 3.2 | 16.1 | 0.00 | 0.05 | 0.05 | 83 | 1008.8 |
| 20260506211336 | 13 | 140 | 1.6 | 12.9 | 0.00 | 0.05 | 0.05 | 83 | 1009.0 |
| 20260506210841 | 13 | 153 | 4.8 | 9.7 | 0.00 | 0.05 | 0.05 | 83 | 1008.8 |
| 20260506210345 | 14 | 326 | 1.6 | 11.3 | 0.00 | 0.05 | 0.05 | 83 | 1008.6 |
| 20260506205828 | 14 | 80 | 3.2 | 11.3 | 0.00 | 0.05 | 0.05 | 83 | 1008.6 |
| 20260506205353 | 14 | 315 | 4.8 | 14.5 | 0.00 | 0.05 | 0.05 | 84 | 1008.8 |
| 20260506204836 | 14 | 310 | 1.6 | 30.6 | 0.00 | 0.05 | 0.05 | 83 | 1008.8 |
| 20260506204323 | 14 | 314 | 6.4 | 30.6 | 0.00 | 0.05 | 0.05 | 83 | 1008.7 |
| 20260506203827 | 14 | 231 | 4.8 | 20.9 | 0.00 | 0.05 | 0.05 | 83 | 1008.8 |
| 20260506203352 | 14 | 241 | 8.0 | 20.9 | 0.00 | 0.05 | 0.05 | 83 | 1008.9 |
| 20260506202856 | 14 | 206 | 8.0 | 20.9 | 0.00 | 0.05 | 0.05 | 83 | 1008.9 |
| 20260506202340 | 14 | 185 | 9.7 | 20.9 | 0.00 | 0.05 | 0.05 | 83 | 1008.8 |
| 20260506201824 | 14 | 309 | 8.0 | 25.7 | 0.00 | 0.05 | 0.05 | 83 | 1008.9 |
| 20260506201329 | 14 | 116 | 12.9 | 25.7 | 0.00 | 0.05 | 0.05 | 83 | 1009.0 |
| 20260506200834 | 14 | 248 | 8.0 | 20.9 | 0.00 | 0.05 | 0.05 | 83 | 1008.9 |
| 20260506200337 | 14 | 194 | 8.0 | 20.9 | 0.00 | 0.05 | 0.05 | 83 | 1009.0 |
| 20260506195841 | 14 | 206 | 6.4 | 17.7 | 0.00 | 0.05 | 0.05 | 83 | 1009.0 |
| 20260506195325 | 14 | 204 | 9.7 | 20.9 | 0.00 | 0.05 | 0.05 | 83 | 1008.9 |
| 20260506194829 | 14 | 239 | 9.7 | 20.9 | 0.00 | 0.05 | 0.05 | 83 | 1008.8 |
| 20260506194353 | 14 | 280 | 8.0 | 29.0 | 0.00 | 0.05 | 0.05 | 83 | 1009.0 |
| 20260506193820 | 14 | 236 | 9.7 | 19.3 | 0.00 | 0.05 | 0.05 | 83 | 1009.0 |
| 20260506193323 | 14 | 338 | 3.2 | 19.3 | 0.00 | 0.05 | 0.05 | 82 | 1009.0 |
| 20260506192829 | 14 | 261 | 6.4 | 12.9 | 0.00 | 0.05 | 0.05 | 82 | 1008.9 |
| 20260506192334 | 14 | 169 | 4.8 | 12.9 | 0.00 | 0.05 | 0.05 | 83 | 1009.0 |
| 20260506191837 | 14 | 85 | 3.2 | 12.9 | 0.00 | 0.05 | 0.05 | 83 | 1008.9 |
| 20260506191322 | 14 | 242 | 3.2 | 22.5 | 0.00 | 0.05 | 0.05 | 83 | 1009.0 |
| 20260506190825 | 14 | 188 | 9.7 | 24.1 | 0.00 | 0.05 | 0.05 | 83 | 1009.0 |
| 20260506190330 | 14 | 228 | 11.3 | 25.7 | 0.00 | 0.05 | 0.05 | 83 | 1009.0 |
| 20260506185855 | 14 | 317 | 9.7 | 25.7 | 0.00 | 0.05 | 0.05 | 83 | 1009.0 |
| 20260506185337 | 14 | 201 | 8.0 | 29.0 | 0.00 | 0.05 | 0.05 | 83 | 1009.0 |
| 20260506184821 | 14 | 227 | 8.0 | 19.3 | 0.00 | 0.05 | 0.05 | 83 | 1009.0 |
| 20260506184326 | 14 | 261 | 9.7 | 22.5 | 0.00 | 0.05 | 0.05 | 83 | 1009.0 |
| 20260506183834 | 14 | 147 | 9.7 | 24.1 | 0.00 | 0.05 | 0.05 | 82 | 1009.1 |
| 20260506183359 | 14 | 321 | 8.0 | 24.1 | 0.00 | 0.05 | 0.05 | 83 | 1009.1 |
| 20260506182823 | 14 | 321 | 4.8 | 22.5 | 0.00 | 0.05 | 0.05 | 83 | 1009.2 |
| 20260506182347 | 14 | 307 | 4.8 | 29.0 | 0.00 | 0.05 | 0.05 | 83 | 1009.2 |
| 20260506181831 | 14 | 220 | 8.0 | 27.4 | 0.00 | 0.05 | 0.05 | 82 | 1009.3 |
| 20260506181336 | 14 | 215 | 9.7 | 25.7 | 0.00 | 0.05 | 0.05 | 82 | 1009.3 |
| 20260506180839 | 14 | 282 | 9.7 | 25.7 | 0.00 | 0.05 | 0.05 | 82 | 1009.3 |
| 20260506180324 | 14 | 74 | 4.8 | 19.3 | 0.00 | 0.05 | 0.05 | 83 | 1009.3 |
| 20260506175829 | 14 | 284 | 4.8 | 19.3 | 0.00 | 0.05 | 0.05 | 82 | 1009.3 |
| 20260506175334 | 14 | 183 | 4.8 | 19.3 | 0.00 | 0.05 | 0.05 | 83 | 1009.4 |
| 20260506174838 | 14 | 248 | 8.0 | 22.5 | 0.00 | 0.05 | 0.05 | 83 | 1009.5 |